sensor_id;sensor_type;location;lat;lon;timestamp;pressure;altitude;pressure_sealevel;temperature;humidity
68986;BME280;56035;37.534;-122.308;2022-07-21T00:01:46;101464.72;;;24.36;41.78
68986;BME280;56035;37.534;-122.308;2022-07-21T00:04:12;101459.72;;;24.33;42.01
68986;BME280;56035;37.534;-122.308;2022-07-21T00:06:38;101457.66;;;24.25;42.23
68986;BME280;56035;37.534;-122.308;2022-07-21T00:09:05;101451.44;;;24.14;42.53
68986;BME280;56035;37.534;-122.308;2022-07-21T00:11:31;101451.88;;;24.08;42.50
68986;BME280;56035;37.534;-122.308;2022-07-21T00:13:57;101456.19;;;23.91;43.00
68986;BME280;56035;37.534;-122.308;2022-07-21T00:16:24;101450.78;;;23.81;42.79
68986;BME280;56035;37.534;-122.308;2022-07-21T00:18:50;101449.91;;;23.67;43.51
68986;BME280;56035;37.534;-122.308;2022-07-21T00:21:16;101449.94;;;23.53;43.39
68986;BME280;56035;37.534;-122.308;2022-07-21T00:23:42;101450.03;;;23.48;43.60
68986;BME280;56035;37.534;-122.308;2022-07-21T00:26:09;101449.94;;;23.39;44.03
68986;BME280;56035;37.534;-122.308;2022-07-21T00:28:35;101454.69;;;23.25;43.87
68986;BME280;56035;37.534;-122.308;2022-07-21T00:31:01;101457.81;;;23.09;44.08
68986;BME280;56035;37.534;-122.308;2022-07-21T00:33:27;101455.22;;;22.99;44.37
68986;BME280;56035;37.534;-122.308;2022-07-21T00:35:53;101449.81;;;22.84;44.64
68986;BME280;56035;37.534;-122.308;2022-07-21T00:38:19;101459.28;;;22.74;45.63
68986;BME280;56035;37.534;-122.308;2022-07-21T00:40:45;101457.31;;;22.56;45.88
68986;BME280;56035;37.534;-122.308;2022-07-21T00:43:11;101446.47;;;22.49;46.55
68986;BME280;56035;37.534;-122.308;2022-07-21T00:45:38;101447.09;;;22.46;46.83
68986;BME280;56035;37.534;-122.308;2022-07-21T00:48:04;101446.59;;;22.44;46.34
68986;BME280;56035;37.534;-122.308;2022-07-21T00:50:32;101446.38;;;22.40;46.27
68986;BME280;56035;37.534;-122.308;2022-07-21T00:52:58;101449.47;;;22.20;47.22
68986;BME280;56035;37.534;-122.308;2022-07-21T00:55:25;101454.91;;;22.11;47.08
68986;BME280;56035;37.534;-122.308;2022-07-21T00:57:52;101448.59;;;22.01;47.57
68986;BME280;56035;37.534;-122.308;2022-07-21T01:00:26;101452.75;;;21.84;47.69
68986;BME280;56035;37.534;-122.308;2022-07-21T01:02:53;101449.84;;;21.70;48.09
68986;BME280;56035;37.534;-122.308;2022-07-21T01:05:19;101447.63;;;21.48;49.23
68986;BME280;56035;37.534;-122.308;2022-07-21T01:07:51;101450.09;;;21.26;49.24
68986;BME280;56035;37.534;-122.308;2022-07-21T01:10:19;101441.31;;;21.09;50.04
68986;BME280;56035;37.534;-122.308;2022-07-21T01:12:46;101448.03;;;20.84;50.36
68986;BME280;56035;37.534;-122.308;2022-07-21T01:15:13;101453.25;;;20.61;51.05
68986;BME280;56035;37.534;-122.308;2022-07-21T01:17:40;101458.13;;;20.40;52.09
68986;BME280;56035;37.534;-122.308;2022-07-21T01:20:10;101453.25;;;20.22;52.51
68986;BME280;56035;37.534;-122.308;2022-07-21T01:22:38;101453.66;;;20.05;52.88
68986;BME280;56035;37.534;-122.308;2022-07-21T01:25:05;101457.16;;;19.71;54.15
68986;BME280;56035;37.534;-122.308;2022-07-21T01:27:32;101450.50;;;19.52;54.95
68986;BME280;56035;37.534;-122.308;2022-07-21T01:29:58;101463.97;;;19.39;55.25
68986;BME280;56035;37.534;-122.308;2022-07-21T01:32:25;101470.16;;;19.21;55.95
68986;BME280;56035;37.534;-122.308;2022-07-21T01:34:51;101474.13;;;19.05;56.03
68986;BME280;56035;37.534;-122.308;2022-07-21T01:37:21;101467.16;;;18.92;56.69
68986;BME280;56035;37.534;-122.308;2022-07-21T01:39:51;101468.81;;;18.83;57.28
68986;BME280;56035;37.534;-122.308;2022-07-21T01:42:36;101472.72;;;18.61;57.38
68986;BME280;56035;37.534;-122.308;2022-07-21T01:45:03;101476.88;;;18.43;58.19
68986;BME280;56035;37.534;-122.308;2022-07-21T01:47:30;101467.38;;;18.19;58.53
68986;BME280;56035;37.534;-122.308;2022-07-21T01:49:56;101474.03;;;18.08;59.22
68986;BME280;56035;37.534;-122.308;2022-07-21T01:52:22;101474.31;;;17.96;59.40
68986;BME280;56035;37.534;-122.308;2022-07-21T01:54:49;101463.38;;;17.79;60.60
68986;BME280;56035;37.534;-122.308;2022-07-21T01:57:15;101470.53;;;17.65;60.71
68986;BME280;56035;37.534;-122.308;2022-07-21T01:59:41;101461.25;;;17.49;61.65
68986;BME280;56035;37.534;-122.308;2022-07-21T02:02:07;101453.16;;;17.42;61.91
68986;BME280;56035;37.534;-122.308;2022-07-21T02:04:33;101461.75;;;17.36;62.17
68986;BME280;56035;37.534;-122.308;2022-07-21T02:07:01;101459.19;;;17.24;62.01
68986;BME280;56035;37.534;-122.308;2022-07-21T02:09:47;101458.59;;;17.17;62.30
68986;BME280;56035;37.534;-122.308;2022-07-21T02:12:13;101455.19;;;17.04;62.61
68986;BME280;56035;37.534;-122.308;2022-07-21T02:14:39;101461.78;;;16.93;63.40
68986;BME280;56035;37.534;-122.308;2022-07-21T02:17:06;101463.13;;;16.85;64.05
68986;BME280;56035;37.534;-122.308;2022-07-21T02:19:32;101455.53;;;16.76;64.07
68986;BME280;56035;37.534;-122.308;2022-07-21T02:21:58;101459.16;;;16.76;63.94
68986;BME280;56035;37.534;-122.308;2022-07-21T02:24:24;101469.06;;;16.67;64.67
68986;BME280;56035;37.534;-122.308;2022-07-21T02:26:50;101470.97;;;16.61;64.45
68986;BME280;56035;37.534;-122.308;2022-07-21T02:29:16;101480.91;;;16.52;65.04
68986;BME280;56035;37.534;-122.308;2022-07-21T02:31:42;101476.94;;;16.43;65.36
68986;BME280;56035;37.534;-122.308;2022-07-21T02:34:09;101477.34;;;16.30;65.87
68986;BME280;56035;37.534;-122.308;2022-07-21T02:36:35;101481.72;;;16.21;66.26
68986;BME280;56035;37.534;-122.308;2022-07-21T02:39:01;101488.59;;;16.13;66.67
68986;BME280;56035;37.534;-122.308;2022-07-21T02:41:28;101497.34;;;16.00;67.69
68986;BME280;56035;37.534;-122.308;2022-07-21T02:43:54;101495.28;;;15.90;67.48
68986;BME280;56035;37.534;-122.308;2022-07-21T02:46:20;101494.50;;;15.73;69.03
68986;BME280;56035;37.534;-122.308;2022-07-21T02:48:46;101489.09;;;15.66;68.72
68986;BME280;56035;37.534;-122.308;2022-07-21T02:51:12;101482.34;;;15.57;69.04
68986;BME280;56035;37.534;-122.308;2022-07-21T02:53:38;101490.00;;;15.50;68.99
68986;BME280;56035;37.534;-122.308;2022-07-21T02:56:05;101494.59;;;15.39;70.31
68986;BME280;56035;37.534;-122.308;2022-07-21T02:58:31;101500.66;;;15.36;70.50
68986;BME280;56035;37.534;-122.308;2022-07-21T03:01:05;101494.44;;;15.29;70.64
68986;BME280;56035;37.534;-122.308;2022-07-21T03:03:34;101497.41;;;15.22;70.51
68986;BME280;56035;37.534;-122.308;2022-07-21T03:06:01;101489.75;;;15.12;70.83
68986;BME280;56035;37.534;-122.308;2022-07-21T03:08:29;101493.00;;;15.04;71.46
68986;BME280;56035;37.534;-122.308;2022-07-21T03:10:56;101494.00;;;14.98;71.50
68986;BME280;56035;37.534;-122.308;2022-07-21T03:13:22;101495.25;;;14.90;71.83
68986;BME280;56035;37.534;-122.308;2022-07-21T03:15:49;101501.72;;;14.79;71.96
68986;BME280;56035;37.534;-122.308;2022-07-21T03:18:15;101499.13;;;14.72;72.46
68986;BME280;56035;37.534;-122.308;2022-07-21T03:20:43;101488.44;;;14.64;72.82
68986;BME280;56035;37.534;-122.308;2022-07-21T03:23:09;101492.31;;;14.63;72.58
68986;BME280;56035;37.534;-122.308;2022-07-21T03:25:36;101492.47;;;14.57;72.68
68986;BME280;56035;37.534;-122.308;2022-07-21T03:28:03;101495.63;;;14.48;72.33
68986;BME280;56035;37.534;-122.308;2022-07-21T03:30:29;101507.97;;;14.41;73.02
68986;BME280;56035;37.534;-122.308;2022-07-21T03:32:56;101500.66;;;14.35;72.89
68986;BME280;56035;37.534;-122.308;2022-07-21T03:35:22;101505.00;;;14.31;73.20
68986;BME280;56035;37.534;-122.308;2022-07-21T03:37:54;101500.13;;;14.21;73.49
68986;BME280;56035;37.534;-122.308;2022-07-21T03:40:21;101508.94;;;14.18;73.39
68986;BME280;56035;37.534;-122.308;2022-07-21T03:43:01;101507.97;;;14.12;74.17
68986;BME280;56035;37.534;-122.308;2022-07-21T03:45:28;101503.81;;;14.10;73.76
68986;BME280;56035;37.534;-122.308;2022-07-21T03:47:59;101500.09;;;14.04;74.12
68986;BME280;56035;37.534;-122.308;2022-07-21T03:50:28;101496.03;;;13.95;74.95
68986;BME280;56035;37.534;-122.308;2022-07-21T03:52:55;101507.25;;;13.88;75.07
68986;BME280;56035;37.534;-122.308;2022-07-21T03:55:21;101504.13;;;13.85;75.68
68986;BME280;56035;37.534;-122.308;2022-07-21T03:57:57;101504.50;;;13.76;75.95
68986;BME280;56035;37.534;-122.308;2022-07-21T04:00:32;101515.00;;;13.74;75.91
68986;BME280;56035;37.534;-122.308;2022-07-21T04:03:02;101513.22;;;13.68;75.43
68986;BME280;56035;37.534;-122.308;2022-07-21T04:05:29;101514.91;;;13.57;75.95
68986;BME280;56035;37.534;-122.308;2022-07-21T04:07:55;101518.19;;;13.54;75.06
68986;BME280;56035;37.534;-122.308;2022-07-21T04:10:25;101520.72;;;13.44;76.98
68986;BME280;56035;37.534;-122.308;2022-07-21T04:12:52;101518.31;;;13.36;76.76
68986;BME280;56035;37.534;-122.308;2022-07-21T04:15:18;101520.47;;;13.34;77.33
68986;BME280;56035;37.534;-122.308;2022-07-21T04:17:45;101520.84;;;13.26;78.14
68986;BME280;56035;37.534;-122.308;2022-07-21T04:20:13;101520.94;;;13.19;78.21
68986;BME280;56035;37.534;-122.308;2022-07-21T04:22:40;101520.94;;;13.19;78.36
68986;BME280;56035;37.534;-122.308;2022-07-21T04:25:07;101529.47;;;13.18;79.68
68986;BME280;56035;37.534;-122.308;2022-07-21T04:27:34;101527.78;;;13.17;78.80
68986;BME280;56035;37.534;-122.308;2022-07-21T04:30:00;101536.00;;;13.11;79.19
68986;BME280;56035;37.534;-122.308;2022-07-21T04:32:26;101533.09;;;13.18;79.88
68986;BME280;56035;37.534;-122.308;2022-07-21T04:34:55;101531.50;;;13.10;79.55
68986;BME280;56035;37.534;-122.308;2022-07-21T04:37:21;101533.91;;;13.07;79.98
68986;BME280;56035;37.534;-122.308;2022-07-21T04:39:48;101532.72;;;13.03;79.55
68986;BME280;56035;37.534;-122.308;2022-07-21T04:42:14;101534.88;;;13.01;80.46
68986;BME280;56035;37.534;-122.308;2022-07-21T04:44:40;101533.56;;;12.92;79.99
68986;BME280;56035;37.534;-122.308;2022-07-21T04:47:06;101537.66;;;12.89;80.71
68986;BME280;56035;37.534;-122.308;2022-07-21T04:49:32;101535.59;;;12.84;80.47
68986;BME280;56035;37.534;-122.308;2022-07-21T04:51:59;101545.69;;;12.79;80.87
68986;BME280;56035;37.534;-122.308;2022-07-21T04:54:25;101549.78;;;12.76;80.78
68986;BME280;56035;37.534;-122.308;2022-07-21T04:56:51;101544.72;;;12.73;82.08
68986;BME280;56035;37.534;-122.308;2022-07-21T04:59:18;101551.34;;;12.72;81.62
68986;BME280;56035;37.534;-122.308;2022-07-21T05:01:44;101556.00;;;12.72;81.88
68986;BME280;56035;37.534;-122.308;2022-07-21T05:04:10;101555.03;;;12.66;81.87
68986;BME280;56035;37.534;-122.308;2022-07-21T05:06:36;101557.66;;;12.61;82.70
68986;BME280;56035;37.534;-122.308;2022-07-21T05:09:03;101560.06;;;12.57;82.28
68986;BME280;56035;37.534;-122.308;2022-07-21T05:11:29;101560.31;;;12.56;82.79
68986;BME280;56035;37.534;-122.308;2022-07-21T05:13:55;101564.59;;;12.52;82.55
68986;BME280;56035;37.534;-122.308;2022-07-21T05:16:23;101559.53;;;12.49;82.49
68986;BME280;56035;37.534;-122.308;2022-07-21T05:18:49;101564.47;;;12.47;82.91
68986;BME280;56035;37.534;-122.308;2022-07-21T05:21:15;101561.94;;;12.45;83.36
68986;BME280;56035;37.534;-122.308;2022-07-21T05:23:41;101560.09;;;12.39;83.72
68986;BME280;56035;37.534;-122.308;2022-07-21T05:26:08;101557.59;;;12.37;83.75
68986;BME280;56035;37.534;-122.308;2022-07-21T05:28:34;101550.59;;;12.35;83.15
68986;BME280;56035;37.534;-122.308;2022-07-21T05:31:00;101559.38;;;12.32;82.88
68986;BME280;56035;37.534;-122.308;2022-07-21T05:33:26;101559.47;;;12.25;82.89
68986;BME280;56035;37.534;-122.308;2022-07-21T05:35:52;101561.00;;;12.21;83.10
68986;BME280;56035;37.534;-122.308;2022-07-21T05:38:18;101551.25;;;12.18;83.65
68986;BME280;56035;37.534;-122.308;2022-07-21T05:40:44;101553.03;;;12.13;83.28
68986;BME280;56035;37.534;-122.308;2022-07-21T05:43:11;101557.03;;;12.17;84.46
68986;BME280;56035;37.534;-122.308;2022-07-21T05:45:37;101550.69;;;12.16;84.86
68986;BME280;56035;37.534;-122.308;2022-07-21T05:48:03;101541.41;;;12.11;85.19
68986;BME280;56035;37.534;-122.308;2022-07-21T05:50:29;101553.03;;;12.13;85.50
68986;BME280;56035;37.534;-122.308;2022-07-21T05:52:55;101543.53;;;12.09;85.22
68986;BME280;56035;37.534;-122.308;2022-07-21T05:55:21;101545.72;;;12.07;85.27
68986;BME280;56035;37.534;-122.308;2022-07-21T05:57:48;101543.88;;;12.01;85.46
68986;BME280;56035;37.534;-122.308;2022-07-21T06:00:16;101542.63;;;11.97;85.74
68986;BME280;56035;37.534;-122.308;2022-07-21T06:02:44;101532.66;;;11.95;86.25
68986;BME280;56035;37.534;-122.308;2022-07-21T06:05:10;101535.31;;;11.90;85.80
68986;BME280;56035;37.534;-122.308;2022-07-21T06:07:37;101533.59;;;11.89;86.59
68986;BME280;56035;37.534;-122.308;2022-07-21T06:10:03;101536.34;;;11.89;86.52
68986;BME280;56035;37.534;-122.308;2022-07-21T06:12:29;101532.59;;;11.84;86.66
68986;BME280;56035;37.534;-122.308;2022-07-21T06:14:55;101520.56;;;11.78;86.93
68986;BME280;56035;37.534;-122.308;2022-07-21T06:17:22;101529.06;;;11.77;86.94
68986;BME280;56035;37.534;-122.308;2022-07-21T06:19:48;101528.66;;;11.73;87.22
68986;BME280;56035;37.534;-122.308;2022-07-21T06:22:15;101520.38;;;11.73;87.83
68986;BME280;56035;37.534;-122.308;2022-07-21T06:24:41;101513.19;;;11.72;88.13
68986;BME280;56035;37.534;-122.308;2022-07-21T06:27:07;101515.94;;;11.72;88.97
68986;BME280;56035;37.534;-122.308;2022-07-21T06:29:34;101513.03;;;11.67;88.39
68986;BME280;56035;37.534;-122.308;2022-07-21T06:32:01;101511.81;;;11.63;88.33
68986;BME280;56035;37.534;-122.308;2022-07-21T06:34:27;101521.63;;;11.59;88.36
68986;BME280;56035;37.534;-122.308;2022-07-21T06:36:53;101517.19;;;11.58;88.67
68986;BME280;56035;37.534;-122.308;2022-07-21T06:39:19;101522.09;;;11.56;88.81
68986;BME280;56035;37.534;-122.308;2022-07-21T06:41:45;101514.91;;;11.55;88.90
68986;BME280;56035;37.534;-122.308;2022-07-21T06:44:11;101513.44;;;11.52;89.55
68986;BME280;56035;37.534;-122.308;2022-07-21T06:46:37;101509.22;;;11.49;89.31
68986;BME280;56035;37.534;-122.308;2022-07-21T06:49:04;101511.34;;;11.47;89.68
68986;BME280;56035;37.534;-122.308;2022-07-21T06:51:30;101506.06;;;11.46;89.53
68986;BME280;56035;37.534;-122.308;2022-07-21T06:53:56;101509.28;;;11.43;89.35
68986;BME280;56035;37.534;-122.308;2022-07-21T06:56:22;101515.44;;;11.45;89.66
68986;BME280;56035;37.534;-122.308;2022-07-21T06:58:49;101518.03;;;11.40;89.63
68986;BME280;56035;37.534;-122.308;2022-07-21T07:01:15;101510.44;;;11.35;89.51
68986;BME280;56035;37.534;-122.308;2022-07-21T07:03:42;101504.09;;;11.35;89.77
68986;BME280;56035;37.534;-122.308;2022-07-21T07:06:09;101506.44;;;11.31;89.54
68986;BME280;56035;37.534;-122.308;2022-07-21T07:08:35;101502.47;;;11.27;89.36
68986;BME280;56035;37.534;-122.308;2022-07-21T07:11:02;101501.22;;;11.23;89.30
68986;BME280;56035;37.534;-122.308;2022-07-21T07:13:29;101508.69;;;11.22;89.90
68986;BME280;56035;37.534;-122.308;2022-07-21T07:15:55;101502.16;;;11.17;89.71
68986;BME280;56035;37.534;-122.308;2022-07-21T07:18:21;101502.38;;;11.15;89.93
68986;BME280;56035;37.534;-122.308;2022-07-21T07:20:49;101500.28;;;11.11;90.00
68986;BME280;56035;37.534;-122.308;2022-07-21T07:23:16;101494.78;;;11.11;89.90
68986;BME280;56035;37.534;-122.308;2022-07-21T07:25:42;101498.00;;;11.08;89.86
68986;BME280;56035;37.534;-122.308;2022-07-21T07:28:08;101495.69;;;11.05;89.96
68986;BME280;56035;37.534;-122.308;2022-07-21T07:30:35;101499.78;;;11.02;89.79
68986;BME280;56035;37.534;-122.308;2022-07-21T07:33:02;101496.59;;;10.98;89.84
68986;BME280;56035;37.534;-122.308;2022-07-21T07:35:28;101499.34;;;10.98;90.51
68986;BME280;56035;37.534;-122.308;2022-07-21T07:37:54;101491.50;;;11.02;90.69
68986;BME280;56035;37.534;-122.308;2022-07-21T07:40:22;101500.59;;;11.02;91.14
68986;BME280;56035;37.534;-122.308;2022-07-21T07:42:49;101495.75;;;10.98;91.01
68986;BME280;56035;37.534;-122.308;2022-07-21T07:45:15;101503.56;;;11.01;91.62
68986;BME280;56035;37.534;-122.308;2022-07-21T07:47:42;101500.88;;;10.94;91.00
68986;BME280;56035;37.534;-122.308;2022-07-21T07:50:10;101505.78;;;10.92;91.13
68986;BME280;56035;37.534;-122.308;2022-07-21T07:52:37;101497.75;;;10.91;91.57
68986;BME280;56035;37.534;-122.308;2022-07-21T07:55:05;101493.97;;;10.85;91.24
68986;BME280;56035;37.534;-122.308;2022-07-21T07:57:34;101497.41;;;10.81;90.72
68986;BME280;56035;37.534;-122.308;2022-07-21T08:00:03;101493.19;;;10.78;90.76
68986;BME280;56035;37.534;-122.308;2022-07-21T08:02:30;101495.34;;;10.76;90.56
68986;BME280;56035;37.534;-122.308;2022-07-21T08:04:56;101496.63;;;10.73;91.11
68986;BME280;56035;37.534;-122.308;2022-07-21T08:07:22;101496.44;;;10.68;91.05
68986;BME280;56035;37.534;-122.308;2022-07-21T08:09:48;101495.59;;;10.68;91.70
68986;BME280;56035;37.534;-122.308;2022-07-21T08:12:14;101489.47;;;10.66;91.96
68986;BME280;56035;37.534;-122.308;2022-07-21T08:14:40;101487.78;;;10.65;92.30
68986;BME280;56035;37.534;-122.308;2022-07-21T08:17:07;101480.59;;;10.64;92.51
68986;BME280;56035;37.534;-122.308;2022-07-21T08:19:33;101475.94;;;10.64;92.65
68986;BME280;56035;37.534;-122.308;2022-07-21T08:21:59;101468.94;;;10.62;92.52
68986;BME280;56035;37.534;-122.308;2022-07-21T08:24:27;101467.28;;;10.61;93.05
68986;BME280;56035;37.534;-122.308;2022-07-21T08:26:53;101466.88;;;10.57;93.22
68986;BME280;56035;37.534;-122.308;2022-07-21T08:29:20;101452.72;;;10.53;92.10
68986;BME280;56035;37.534;-122.308;2022-07-21T08:31:46;101451.00;;;10.52;92.13
68986;BME280;56035;37.534;-122.308;2022-07-21T08:34:12;101460.59;;;10.50;92.48
68986;BME280;56035;37.534;-122.308;2022-07-21T08:36:38;101454.69;;;10.46;91.99
68986;BME280;56035;37.534;-122.308;2022-07-21T08:39:05;101456.81;;;10.44;91.86
68986;BME280;56035;37.534;-122.308;2022-07-21T08:41:35;101457.91;;;10.43;92.30
68986;BME280;56035;37.534;-122.308;2022-07-21T08:44:02;101452.81;;;10.40;92.11
68986;BME280;56035;37.534;-122.308;2022-07-21T08:46:28;101447.31;;;10.40;92.35
68986;BME280;56035;37.534;-122.308;2022-07-21T08:48:57;101456.63;;;10.39;92.48
68986;BME280;56035;37.534;-122.308;2022-07-21T08:51:26;101453.88;;;10.39;92.39
68986;BME280;56035;37.534;-122.308;2022-07-21T08:53:52;101454.50;;;10.41;92.59
68986;BME280;56035;37.534;-122.308;2022-07-21T08:56:18;101456.13;;;10.49;93.51
68986;BME280;56035;37.534;-122.308;2022-07-21T08:58:45;101456.69;;;10.58;93.89
68986;BME280;56035;37.534;-122.308;2022-07-21T09:01:11;101461.06;;;10.65;94.12
68986;BME280;56035;37.534;-122.308;2022-07-21T09:03:37;101463.09;;;10.76;94.08
68986;BME280;56035;37.534;-122.308;2022-07-21T09:06:06;101462.97;;;10.90;94.00
68986;BME280;56035;37.534;-122.308;2022-07-21T09:08:39;101451.63;;;10.98;93.62
68986;BME280;56035;37.534;-122.308;2022-07-21T09:11:17;101450.91;;;11.09;92.85
68986;BME280;56035;37.534;-122.308;2022-07-21T09:13:46;101456.94;;;11.18;92.76
68986;BME280;56035;37.534;-122.308;2022-07-21T09:16:13;101453.88;;;11.26;92.37
68986;BME280;56035;37.534;-122.308;2022-07-21T09:18:50;101454.66;;;11.33;91.74
68986;BME280;56035;37.534;-122.308;2022-07-21T09:21:18;101450.72;;;11.41;91.26
68986;BME280;56035;37.534;-122.308;2022-07-21T09:23:44;101449.59;;;11.48;91.11
68986;BME280;56035;37.534;-122.308;2022-07-21T09:26:11;101449.72;;;11.54;90.40
68986;BME280;56035;37.534;-122.308;2022-07-21T09:28:37;101455.41;;;11.59;90.09
68986;BME280;56035;37.534;-122.308;2022-07-21T09:31:06;101440.31;;;11.61;89.55
68986;BME280;56035;37.534;-122.308;2022-07-21T09:33:35;101444.03;;;11.67;89.70
68986;BME280;56035;37.534;-122.308;2022-07-21T09:38:39;101446.47;;;11.75;89.28
68986;BME280;56035;37.534;-122.308;2022-07-21T09:41:12;101446.84;;;11.79;89.00
68986;BME280;56035;37.534;-122.308;2022-07-21T09:43:49;101440.25;;;11.80;88.36
68986;BME280;56035;37.534;-122.308;2022-07-21T09:46:29;101448.91;;;11.83;88.80
68986;BME280;56035;37.534;-122.308;2022-07-21T09:48:57;101447.88;;;11.84;88.41
68986;BME280;56035;37.534;-122.308;2022-07-21T09:51:37;101438.25;;;11.87;88.79
68986;BME280;56035;37.534;-122.308;2022-07-21T09:54:08;101442.00;;;11.92;88.63
68986;BME280;56035;37.534;-122.308;2022-07-21T09:56:40;101428.81;;;11.94;88.51
68986;BME280;56035;37.534;-122.308;2022-07-21T09:59:08;101431.59;;;11.94;87.96
68986;BME280;56035;37.534;-122.308;2022-07-21T10:01:36;101431.13;;;11.98;87.57
68986;BME280;56035;37.534;-122.308;2022-07-21T10:04:04;101437.84;;;12.02;87.21
68986;BME280;56035;37.534;-122.308;2022-07-21T10:06:38;101434.00;;;12.03;87.07
68986;BME280;56035;37.534;-122.308;2022-07-21T10:09:10;101440.34;;;12.03;87.68
68986;BME280;56035;37.534;-122.308;2022-07-21T10:11:40;101436.06;;;12.07;87.50
68986;BME280;56035;37.534;-122.308;2022-07-21T10:14:11;101429.72;;;12.07;87.63
68986;BME280;56035;37.534;-122.308;2022-07-21T10:16:38;101438.13;;;12.12;87.59
68986;BME280;56035;37.534;-122.308;2022-07-21T10:24:29;101431.50;;;12.13;86.25
68986;BME280;56035;37.534;-122.308;2022-07-21T10:27:11;101430.91;;;12.11;86.27
68986;BME280;56035;37.534;-122.308;2022-07-21T10:29:54;101428.53;;;12.14;86.20
68986;BME280;56035;37.534;-122.308;2022-07-21T10:32:23;101424.31;;;12.12;85.21
68986;BME280;56035;37.534;-122.308;2022-07-21T10:34:51;101423.47;;;12.11;84.62
68986;BME280;56035;37.534;-122.308;2022-07-21T10:37:50;101424.56;;;12.10;84.27
68986;BME280;56035;37.534;-122.308;2022-07-21T10:43:35;101421.44;;;12.07;83.76
68986;BME280;56035;37.534;-122.308;2022-07-21T10:45:37;101427.78;;;12.07;83.95
68986;BME280;56035;37.534;-122.308;2022-07-21T10:48:07;101429.72;;;12.07;83.50
68986;BME280;56035;37.534;-122.308;2022-07-21T10:50:39;101425.50;;;12.04;83.57
68986;BME280;56035;37.534;-122.308;2022-07-21T10:53:16;101419.34;;;12.02;83.43
68986;BME280;56035;37.534;-122.308;2022-07-21T10:55:53;101414.78;;;11.96;83.81
68986;BME280;56035;37.534;-122.308;2022-07-21T11:01:20;101419.41;;;11.84;84.22
68986;BME280;56035;37.534;-122.308;2022-07-21T11:04:08;101413.19;;;11.70;84.73
68986;BME280;56035;37.534;-122.308;2022-07-21T11:06:36;101419.75;;;11.57;84.96
68986;BME280;56035;37.534;-122.308;2022-07-21T11:11:30;101424.22;;;11.40;85.44
68986;BME280;56035;37.534;-122.308;2022-07-21T11:14:08;101420.34;;;11.29;86.09
68986;BME280;56035;37.534;-122.308;2022-07-21T11:19:44;101420.78;;;11.08;86.98
68986;BME280;56035;37.534;-122.308;2022-07-21T11:24:48;101408.50;;;10.85;88.26
68986;BME280;56035;37.534;-122.308;2022-07-21T11:27:17;101414.72;;;10.81;88.25
68986;BME280;56035;37.534;-122.308;2022-07-21T11:29:46;101410.56;;;10.71;88.61
68986;BME280;56035;37.534;-122.308;2022-07-21T11:32:13;101410.63;;;10.65;89.42
68986;BME280;56035;37.534;-122.308;2022-07-21T11:34:46;101414.09;;;10.60;89.70
68986;BME280;56035;37.534;-122.308;2022-07-21T11:37:16;101409.88;;;10.58;89.78
68986;BME280;56035;37.534;-122.308;2022-07-21T11:39:43;101416.91;;;10.53;89.69
68986;BME280;56035;37.534;-122.308;2022-07-21T11:42:13;101417.09;;;10.52;89.62
68986;BME280;56035;37.534;-122.308;2022-07-21T11:44:42;101413.56;;;10.45;89.63
68986;BME280;56035;37.534;-122.308;2022-07-21T11:47:12;101418.06;;;10.39;90.61
68986;BME280;56035;37.534;-122.308;2022-07-21T11:49:39;101412.16;;;10.36;90.49
68986;BME280;56035;37.534;-122.308;2022-07-21T11:52:09;101414.53;;;10.32;91.16
68986;BME280;56035;37.534;-122.308;2022-07-21T11:54:42;101413.91;;;10.23;91.84
68986;BME280;56035;37.534;-122.308;2022-07-21T11:57:09;101409.72;;;10.21;92.27
68986;BME280;56035;37.534;-122.308;2022-07-21T11:59:37;101419.03;;;10.20;92.31
68986;BME280;56035;37.534;-122.308;2022-07-21T12:02:10;101417.81;;;10.16;92.24
68986;BME280;56035;37.534;-122.308;2022-07-21T12:04:41;101419.97;;;10.14;92.08
68986;BME280;56035;37.534;-122.308;2022-07-21T12:07:26;101424.19;;;10.09;92.79
68986;BME280;56035;37.534;-122.308;2022-07-21T12:10:00;101417.47;;;10.05;93.06
68986;BME280;56035;37.534;-122.308;2022-07-21T12:12:42;101429.16;;;10.01;92.86
68986;BME280;56035;37.534;-122.308;2022-07-21T12:15:25;101416.03;;;9.96;92.82
68986;BME280;56035;37.534;-122.308;2022-07-21T12:18:06;101426.44;;;9.94;93.06
68986;BME280;56035;37.534;-122.308;2022-07-21T12:20:40;101437.47;;;9.94;93.39
68986;BME280;56035;37.534;-122.308;2022-07-21T12:23:27;101438.50;;;9.93;93.86
68986;BME280;56035;37.534;-122.308;2022-07-21T12:25:55;101435.31;;;9.96;94.19
68986;BME280;56035;37.534;-122.308;2022-07-21T12:28:46;101437.84;;;9.98;94.06
68986;BME280;56035;37.534;-122.308;2022-07-21T12:31:15;101441.22;;;10.00;93.47
68986;BME280;56035;37.534;-122.308;2022-07-21T12:33:42;101430.44;;;9.98;93.63
68986;BME280;56035;37.534;-122.308;2022-07-21T12:36:09;101439.94;;;10.02;93.74
68986;BME280;56035;37.534;-122.308;2022-07-21T12:38:41;101434.38;;;10.09;94.28
68986;BME280;56035;37.534;-122.308;2022-07-21T12:41:09;101444.25;;;10.17;94.16
68986;BME280;56035;37.534;-122.308;2022-07-21T12:43:36;101436.63;;;10.19;93.24
68986;BME280;56035;37.534;-122.308;2022-07-21T12:46:12;101442.78;;;10.21;93.22
68986;BME280;56035;37.534;-122.308;2022-07-21T12:48:41;101437.72;;;10.18;92.44